createdAt,value
2022-11-17T00:02:19.003Z,9.23
2022-11-17T00:04:45.859Z,9.35
2022-11-17T00:07:12.546Z,9.38
2022-11-17T00:09:39.256Z,9.28
2022-11-17T00:12:28.472Z,9.45
2022-11-17T00:14:59.148Z,9.37
2022-11-17T00:17:25.956Z,9.47
2022-11-17T00:20:11.020Z,9.48
2022-11-17T00:22:37.784Z,9.56
2022-11-17T00:25:04.648Z,9.63
2022-11-17T00:27:31.252Z,9.46
2022-11-17T00:29:57.960Z,9.43
2022-11-17T00:32:57.048Z,9.37
2022-11-17T00:35:24.072Z,9.42
2022-11-17T00:38:09.258Z,9.34
2022-11-17T00:40:36.057Z,9.27
2022-11-17T00:43:02.628Z,9.22
2022-11-17T00:45:29.277Z,9.07
2022-11-17T00:47:56.082Z,9.00
2022-11-17T00:50:24.167Z,8.91
2022-11-17T00:52:50.808Z,8.83
2022-11-17T00:55:17.447Z,8.88
2022-11-17T00:57:44.131Z,9.02
2022-11-17T01:00:11.147Z,9.14
2022-11-17T01:02:37.996Z,9.10
2022-11-17T01:05:04.957Z,9.15
2022-11-17T01:07:31.584Z,9.18
2022-11-17T01:09:58.237Z,9.17
2022-11-17T01:12:24.831Z,9.19
2022-11-17T01:14:51.473Z,9.26
2022-11-17T01:17:18.080Z,9.13
2022-11-17T01:19:44.660Z,9.17
2022-11-17T01:22:11.256Z,9.23
2022-11-17T01:24:38.025Z,9.01
2022-11-17T01:27:04.617Z,9.07
2022-11-17T01:29:31.234Z,9.20
2022-11-17T01:31:58.094Z,9.32
2022-11-17T01:34:24.698Z,9.55
2022-11-17T01:37:09.908Z,9.43
2022-11-17T01:39:36.607Z,9.52
2022-11-17T01:42:11.573Z,9.48
2022-11-17T01:44:44.638Z,9.40
2022-11-17T01:47:35.036Z,9.43
2022-11-17T01:50:22.004Z,9.45
2022-11-17T01:52:52.458Z,9.47
2022-11-17T01:55:21.300Z,9.51
2022-11-17T01:57:54.971Z,9.55
2022-11-17T02:00:21.741Z,9.41
2022-11-17T02:02:48.982Z,9.56
2022-11-17T02:05:37.113Z,9.57
2022-11-17T02:08:06.445Z,9.60
2022-11-17T02:10:35.245Z,9.62
2022-11-17T02:13:02.601Z,9.59
2022-11-17T02:15:30.254Z,9.47
2022-11-17T02:17:58.468Z,9.64
2022-11-17T02:20:48.780Z,9.67
2022-11-17T02:23:28.599Z,9.74
2022-11-17T02:27:12.409Z,9.79
2022-11-17T02:30:00.438Z,9.82
2022-11-17T02:32:31.170Z,9.70
2022-11-17T02:35:03.549Z,9.71
2022-11-17T02:37:30.109Z,9.59
2022-11-17T02:40:07.580Z,9.69
2022-11-17T02:42:59.194Z,9.66
2022-11-17T02:45:31.864Z,9.51
2022-11-17T02:48:00.592Z,9.48
2022-11-17T02:50:29.798Z,9.64
2022-11-17T02:52:57.117Z,9.48
2022-11-17T02:55:23.710Z,9.66
2022-11-17T02:57:50.254Z,9.49
2022-11-17T03:00:19.039Z,9.71
2022-11-17T03:03:13.274Z,9.56
2022-11-17T03:06:11.854Z,9.52
2022-11-17T03:08:52.518Z,9.48
2022-11-17T03:11:27.272Z,9.57
2022-11-17T03:14:01.190Z,9.60
2022-11-17T03:16:37.569Z,9.61
2022-11-17T03:19:19.235Z,9.53
2022-11-17T03:21:55.056Z,9.61
2022-11-17T03:24:28.756Z,9.64
2022-11-17T03:27:18.069Z,9.68
2022-11-17T03:29:49.359Z,9.62
2022-11-17T03:32:18.064Z,9.69
2022-11-17T03:34:50.836Z,9.70
2022-11-17T03:37:21.299Z,9.60
2022-11-17T03:39:52.692Z,9.70
2022-11-17T03:42:27.852Z,9.60
2022-11-17T03:45:03.711Z,9.64
2022-11-17T03:47:33.510Z,9.73
2022-11-17T03:50:09.080Z,9.65
2022-11-17T03:52:38.189Z,9.77
2022-11-17T03:55:06.836Z,9.44
2022-11-17T03:57:50.324Z,9.72
2022-11-17T04:00:18.957Z,9.94
2022-11-17T04:02:48.130Z,9.98
2022-11-17T04:05:17.444Z,9.81
2022-11-17T04:07:46.756Z,10.02
2022-11-17T04:10:16.495Z,10.08
2022-11-17T04:13:01.775Z,10.12
2022-11-17T04:15:47.085Z,9.83
2022-11-17T04:18:14.758Z,10.02
2022-11-17T04:20:41.720Z,9.92
2022-11-17T04:23:12.181Z,9.79
2022-11-17T04:26:05.991Z,9.72
2022-11-17T04:28:37.473Z,9.79
2022-11-17T04:31:14.425Z,9.80
2022-11-17T04:33:52.315Z,9.70
2022-11-17T04:36:22.381Z,9.76
2022-11-17T04:38:51.264Z,9.75
2022-11-17T04:41:38.160Z,9.86
2022-11-17T04:44:07.031Z,9.80
2022-11-17T04:46:35.689Z,9.82
2022-11-17T04:49:03.352Z,9.72
2022-11-17T04:51:31.447Z,9.92
2022-11-17T04:53:58.700Z,10.03
2022-11-17T04:56:26.701Z,10.00
2022-11-17T04:58:53.820Z,9.95
2022-11-17T05:01:22.374Z,9.96
2022-11-17T05:04:06.424Z,10.21
2022-11-17T05:06:40.481Z,10.19
2022-11-17T05:09:11.068Z,10.25
2022-11-17T05:11:56.263Z,10.18
2022-11-17T05:14:25.028Z,10.18
2022-11-17T05:17:11.002Z,10.31
2022-11-17T05:19:41.531Z,10.35
2022-11-17T05:22:28.491Z,10.34
2022-11-17T05:24:55.730Z,10.07
2022-11-17T05:27:24.012Z,10.04
2022-11-17T05:29:50.879Z,10.08
2022-11-17T05:32:18.255Z,9.90
2022-11-17T05:34:44.893Z,9.91
2022-11-17T05:37:11.564Z,9.71
2022-11-17T05:39:38.180Z,9.66
2022-11-17T05:42:05.004Z,9.64
2022-11-17T05:44:31.595Z,9.59
2022-11-17T05:46:58.673Z,9.69
2022-11-17T05:49:25.257Z,9.61
2022-11-17T05:51:53.129Z,9.71
2022-11-17T05:54:20.618Z,9.79
2022-11-17T05:56:52.606Z,9.66
2022-11-17T05:59:46.858Z,9.76
2022-11-17T06:02:24.058Z,9.77
2022-11-17T06:04:51.855Z,9.75
2022-11-17T06:07:19.631Z,9.75
2022-11-17T06:09:46.869Z,9.86
2022-11-17T06:12:15.564Z,9.99
2022-11-17T06:14:42.752Z,9.94
2022-11-17T06:17:22.119Z,9.87
2022-11-17T06:19:57.841Z,9.82
2022-11-17T06:22:26.882Z,9.79
2022-11-17T06:24:54.338Z,9.91
2022-11-17T06:27:21.244Z,10.12
2022-11-17T06:29:49.470Z,10.15
2022-11-17T06:32:18.255Z,10.24
2022-11-17T06:34:51.907Z,10.15
2022-11-17T06:37:21.972Z,10.21
2022-11-17T06:39:48.528Z,10.33
2022-11-17T06:42:15.574Z,10.26
2022-11-17T06:44:42.484Z,10.38
2022-11-17T06:47:09.056Z,10.36
2022-11-17T06:49:35.621Z,10.52
2022-11-17T06:52:02.323Z,10.69
2022-11-17T06:54:28.940Z,10.90
2022-11-17T06:56:55.652Z,10.97
2022-11-17T06:59:22.702Z,11.01
2022-11-17T07:01:49.315Z,11.11
2022-11-17T07:04:15.950Z,11.12
2022-11-17T07:06:42.860Z,11.06
2022-11-17T07:09:09.610Z,11.12
2022-11-17T07:11:36.516Z,11.13
2022-11-17T07:14:03.914Z,11.31
2022-11-17T07:16:31.231Z,11.30
2022-11-17T07:18:59.398Z,11.38
2022-11-17T07:21:26.446Z,11.33
2022-11-17T07:23:53.315Z,11.31
2022-11-17T07:26:19.982Z,11.17
2022-11-17T07:28:46.815Z,11.23
2022-11-17T07:31:13.452Z,11.34
2022-11-17T07:33:40.072Z,11.34
2022-11-17T07:36:09.788Z,11.32
2022-11-17T07:38:39.186Z,11.44
2022-11-17T07:41:07.177Z,11.46
2022-11-17T07:43:35.340Z,11.49
2022-11-17T07:46:06.343Z,11.47
2022-11-17T07:48:33.738Z,11.54
2022-11-17T07:51:01.663Z,11.62
2022-11-17T07:53:29.128Z,11.58
2022-11-17T07:55:56.076Z,11.43
2022-11-17T07:58:25.749Z,11.61
2022-11-17T08:00:52.465Z,11.72
2022-11-17T08:03:19.231Z,11.68
2022-11-17T08:05:45.964Z,11.83
2022-11-17T08:08:13.723Z,11.81
2022-11-17T08:10:40.701Z,11.77
2022-11-17T08:13:07.746Z,11.83
2022-11-17T08:15:36.168Z,12.03
2022-11-17T08:18:03.485Z,12.09
2022-11-17T08:20:30.402Z,12.32
2022-11-17T08:22:57.076Z,12.42
2022-11-17T08:25:26.227Z,12.75
2022-11-17T08:27:57.955Z,12.84
2022-11-17T08:30:25.820Z,12.83
2022-11-17T08:32:53.805Z,13.02
2022-11-17T08:35:23.149Z,12.88
2022-11-17T08:37:49.817Z,12.67
2022-11-17T08:40:18.145Z,12.90
2022-11-17T08:42:45.590Z,12.66
2022-11-17T08:45:13.240Z,12.68
2022-11-17T08:47:40.395Z,12.69
2022-11-17T08:50:07.756Z,12.48
2022-11-17T08:52:34.408Z,12.29
2022-11-17T08:55:01.098Z,12.23
2022-11-17T08:57:29.912Z,12.23
2022-11-17T08:59:56.583Z,12.24
2022-11-17T09:02:23.461Z,12.34
2022-11-17T09:04:50.864Z,12.28
2022-11-17T09:07:18.392Z,12.45
2022-11-17T09:09:46.428Z,12.46
2022-11-17T09:12:13.285Z,12.43
2022-11-17T09:14:39.996Z,12.87
2022-11-17T09:17:06.818Z,12.97
2022-11-17T09:19:33.804Z,13.13
2022-11-17T09:22:00.453Z,13.15
2022-11-17T09:24:27.320Z,13.20
2022-11-17T09:26:55.201Z,13.23
2022-11-17T09:29:24.012Z,13.78
2022-11-17T09:31:50.693Z,13.61
2022-11-17T09:34:17.499Z,13.50
2022-11-17T09:36:44.171Z,13.76
2022-11-17T09:39:11.014Z,13.58
2022-11-17T09:41:51.952Z,13.52
2022-11-17T09:44:30.623Z,13.60
2022-11-17T09:47:16.856Z,13.66
2022-11-17T09:50:36.584Z,13.47
2022-11-17T09:53:39.299Z,13.52
2022-11-17T09:56:08.975Z,13.35
2022-11-17T09:58:50.615Z,13.35
2022-11-17T10:01:19.460Z,13.25
2022-11-17T10:03:48.669Z,13.07
2022-11-17T10:06:19.648Z,13.15
2022-11-17T10:09:04.778Z,13.12
2022-11-17T10:11:35.127Z,13.25
2022-11-17T10:14:15.870Z,13.40
2022-11-17T10:16:53.978Z,13.19
2022-11-17T10:19:24.406Z,13.11
2022-11-17T10:22:02.967Z,13.28
2022-11-17T10:24:38.461Z,13.55
2022-11-17T10:27:27.274Z,13.45
2022-11-17T10:30:14.996Z,13.76
2022-11-17T10:32:53.035Z,13.60
2022-11-17T10:35:26.083Z,13.63
2022-11-17T10:37:55.694Z,13.98
2022-11-17T10:40:26.111Z,14.31
2022-11-17T10:43:14.029Z,14.02
2022-11-17T10:45:49.655Z,14.00
2022-11-17T10:48:26.230Z,14.15
2022-11-17T10:51:02.823Z,14.14
2022-11-17T10:53:36.871Z,13.87
2022-11-17T10:56:11.163Z,13.99
2022-11-17T10:59:02.461Z,13.97
2022-11-17T11:01:32.285Z,14.51
2022-11-17T11:03:59.317Z,14.74
2022-11-17T11:06:29.628Z,14.99
2022-11-17T11:09:20.952Z,15.44
2022-11-17T11:11:54.251Z,15.56
2022-11-17T11:14:40.530Z,15.06
2022-11-17T11:17:15.958Z,15.38
2022-11-17T11:19:46.034Z,15.00
2022-11-17T11:22:35.768Z,15.00
2022-11-17T11:25:05.699Z,14.74
2022-11-17T11:27:46.223Z,15.26
2022-11-17T11:30:16.777Z,15.48
2022-11-17T11:32:52.417Z,15.17
2022-11-17T11:35:37.192Z,15.59
2022-11-17T11:38:06.478Z,16.03
2022-11-17T11:40:40.005Z,15.92
2022-11-17T11:43:18.700Z,16.11
2022-11-17T11:46:14.856Z,15.88
2022-11-17T11:48:41.728Z,14.87
2022-11-17T11:51:16.739Z,15.16
2022-11-17T11:54:08.752Z,15.40
2022-11-17T11:56:53.871Z,15.80
2022-11-17T11:59:20.562Z,16.33
2022-11-17T12:02:11.843Z,15.78
2022-11-17T12:04:49.125Z,16.26
2022-11-17T12:07:26.022Z,15.61
2022-11-17T12:10:24.630Z,15.67
2022-11-17T12:12:51.508Z,16.15
2022-11-17T12:15:21.200Z,15.92
2022-11-17T12:18:13.312Z,15.10
2022-11-17T12:20:40.981Z,15.39
2022-11-17T12:23:35.149Z,14.80
2022-11-17T12:26:02.843Z,15.15
2022-11-17T12:28:32.586Z,15.33
2022-11-17T12:31:06.743Z,15.51
2022-11-17T12:33:54.325Z,15.90
2022-11-17T12:36:29.668Z,16.44
2022-11-17T12:39:01.654Z,15.84
2022-11-17T12:41:50.132Z,16.27
2022-11-17T12:44:50.590Z,15.61
2022-11-17T12:47:20.277Z,16.00
2022-11-17T12:50:14.532Z,15.94
2022-11-17T12:52:53.482Z,15.51
2022-11-17T12:55:54.907Z,15.16
2022-11-17T12:58:41.691Z,14.61
2022-11-17T13:01:36.310Z,14.43
2022-11-17T13:04:19.286Z,14.10
2022-11-17T13:07:04.320Z,14.20
2022-11-17T13:09:33.543Z,13.69
2022-11-17T13:12:01.971Z,13.67
2022-11-17T13:14:28.667Z,13.49
2022-11-17T13:16:55.597Z,13.60
2022-11-17T13:19:34.945Z,14.02
2022-11-17T13:22:06.359Z,14.28
2022-11-17T13:24:37.385Z,14.14
2022-11-17T13:27:07.558Z,14.28
2022-11-17T13:29:34.386Z,13.95
2022-11-17T13:32:13.604Z,14.08
2022-11-17T13:34:51.432Z,13.61
2022-11-17T13:37:21.780Z,13.84
2022-11-17T13:40:00.836Z,13.38
2022-11-17T13:42:31.942Z,12.98
2022-11-17T13:45:01.799Z,13.65
2022-11-17T13:47:42.427Z,13.80
2022-11-17T13:50:27.017Z,12.74
2022-11-17T13:53:13.105Z,12.91
2022-11-17T13:55:47.117Z,12.89
2022-11-17T13:58:26.425Z,12.83
2022-11-17T14:00:58.656Z,12.42
2022-11-17T14:03:39.900Z,12.32
2022-11-17T14:06:11.657Z,12.54
2022-11-17T14:08:40.245Z,12.55
2022-11-17T14:11:09.941Z,12.42
2022-11-17T14:13:40.608Z,12.68
2022-11-17T14:16:20.754Z,12.56
2022-11-17T14:19:03.157Z,12.52
2022-11-17T14:21:30.655Z,12.58
2022-11-17T14:24:11.674Z,12.26
2022-11-17T14:26:44.775Z,12.68
2022-11-17T14:29:13.065Z,12.78
2022-11-17T14:31:39.704Z,12.81
2022-11-17T14:34:06.371Z,12.77
2022-11-17T14:36:33.669Z,12.79
2022-11-17T14:39:02.116Z,12.50
2022-11-17T14:41:29.197Z,12.30
2022-11-17T14:43:56.109Z,12.51
2022-11-17T14:46:27.130Z,12.61
2022-11-17T14:48:54.150Z,12.44
2022-11-17T14:51:21.449Z,12.57
2022-11-17T14:53:48.037Z,12.61
2022-11-17T14:56:19.234Z,12.36
2022-11-17T14:58:47.022Z,12.22
2022-11-17T15:01:28.522Z,12.12
2022-11-17T15:03:57.020Z,11.92
2022-11-17T15:06:24.414Z,11.75
2022-11-17T15:09:02.324Z,11.58
2022-11-17T15:11:39.141Z,11.32
2022-11-17T15:14:06.998Z,11.29
2022-11-17T15:16:33.803Z,11.22
2022-11-17T15:19:00.407Z,11.15
2022-11-17T15:21:27.155Z,11.09
2022-11-17T15:23:53.941Z,11.11
2022-11-17T15:26:23.512Z,10.96
2022-11-17T15:28:50.429Z,10.94
2022-11-17T15:31:19.996Z,10.86
2022-11-17T15:33:48.125Z,10.78
2022-11-17T15:36:19.477Z,10.77
2022-11-17T15:38:47.544Z,10.57
2022-11-17T15:41:15.103Z,10.70
2022-11-17T15:43:43.939Z,10.67
2022-11-17T15:46:13.168Z,10.66
2022-11-17T15:48:44.942Z,10.63
2022-11-17T15:51:14.577Z,10.62
2022-11-17T15:53:42.406Z,10.63
2022-11-17T15:56:12.588Z,10.77
2022-11-17T15:58:41.086Z,10.64
2022-11-17T16:01:28.902Z,10.78
2022-11-17T16:04:03.650Z,10.49
2022-11-17T16:06:31.894Z,10.82
2022-11-17T16:08:58.411Z,11.08
2022-11-17T16:11:26.968Z,11.09
2022-11-17T16:13:55.155Z,11.02
2022-11-17T16:16:23.359Z,11.16
2022-11-17T16:18:49.885Z,11.36
2022-11-17T16:21:17.484Z,11.45
2022-11-17T16:23:53.167Z,10.95
2022-11-17T16:26:21.165Z,11.15
2022-11-17T16:28:48.008Z,11.06
2022-11-17T16:31:23.308Z,11.07
2022-11-17T16:33:54.972Z,11.25
2022-11-17T16:36:23.692Z,11.48
2022-11-17T16:39:00.806Z,11.43
2022-11-17T16:41:36.179Z,11.33
2022-11-17T16:44:06.815Z,10.83
2022-11-17T16:46:33.490Z,10.76
2022-11-17T16:49:07.045Z,10.70
2022-11-17T16:51:34.117Z,10.65
2022-11-17T16:54:03.362Z,10.71
2022-11-17T16:56:30.775Z,10.69
2022-11-17T16:58:58.731Z,10.62
2022-11-17T17:01:30.564Z,10.62
2022-11-17T17:04:02.986Z,10.79
2022-11-17T17:06:29.956Z,10.85
2022-11-17T17:09:01.398Z,10.94
2022-11-17T17:11:29.347Z,10.98
2022-11-17T17:13:58.860Z,10.87
2022-11-17T17:16:26.163Z,10.81
2022-11-17T17:18:59.275Z,11.00
2022-11-17T17:21:26.986Z,11.05
2022-11-17T17:23:53.955Z,11.14
2022-11-17T17:26:22.728Z,11.15
2022-11-17T17:28:51.043Z,11.14
2022-11-17T17:31:21.719Z,11.08
2022-11-17T17:33:50.279Z,10.90
2022-11-17T17:36:22.432Z,11.14
2022-11-17T17:38:55.438Z,11.12
2022-11-17T17:41:24.706Z,11.30
2022-11-17T17:43:59.423Z,11.27
2022-11-17T17:46:29.603Z,10.91
2022-11-17T17:48:56.913Z,11.20
2022-11-17T17:51:25.191Z,11.29
2022-11-17T17:53:53.677Z,11.36
2022-11-17T17:56:21.778Z,11.18
2022-11-17T17:58:49.171Z,11.53
2022-11-17T18:01:21.425Z,11.73
2022-11-17T18:03:50.315Z,11.95
2022-11-17T18:06:19.761Z,11.92
2022-11-17T18:08:46.855Z,11.61
2022-11-17T18:11:19.578Z,11.69
2022-11-17T18:13:48.510Z,11.56
2022-11-17T18:16:21.765Z,11.62
2022-11-17T18:18:49.328Z,11.43
2022-11-17T18:21:18.384Z,11.46
2022-11-17T18:23:45.872Z,11.29
2022-11-17T18:26:18.353Z,11.36
2022-11-17T18:28:59.022Z,11.00
2022-11-17T18:31:28.613Z,11.19
2022-11-17T18:34:01.295Z,11.05
2022-11-17T18:36:28.870Z,10.81
2022-11-17T18:38:57.581Z,10.65
2022-11-17T18:41:25.301Z,10.63
2022-11-17T18:43:52.564Z,10.67
2022-11-17T18:46:21.640Z,10.56
2022-11-17T18:48:51.832Z,10.38
2022-11-17T18:51:23.598Z,10.25
2022-11-17T18:53:51.789Z,10.24
2022-11-17T18:56:24.080Z,9.90
2022-11-17T18:58:50.822Z,10.17
2022-11-17T19:01:19.091Z,10.10
2022-11-17T19:03:48.050Z,9.98
2022-11-17T19:06:16.455Z,9.89
2022-11-17T19:08:43.663Z,9.87
2022-11-17T19:11:11.902Z,10.17
2022-11-17T19:13:40.716Z,10.25
2022-11-17T19:16:16.363Z,10.28
2022-11-17T19:18:44.706Z,10.30
2022-11-17T19:21:17.335Z,10.27
2022-11-17T19:23:51.094Z,10.24
2022-11-17T19:26:21.371Z,9.95
2022-11-17T19:28:48.074Z,10.02
2022-11-17T19:31:19.572Z,10.11
2022-11-17T19:33:48.091Z,10.18
2022-11-17T19:36:16.171Z,10.01
2022-11-17T19:38:43.483Z,9.91
2022-11-17T19:41:13.350Z,9.87
2022-11-17T19:43:45.134Z,9.84
2022-11-17T19:46:15.084Z,9.91
2022-11-17T19:48:43.217Z,9.84
2022-11-17T19:51:20.067Z,9.82
2022-11-17T19:53:51.712Z,9.93
2022-11-17T19:56:19.033Z,9.91
2022-11-17T19:58:46.524Z,9.96
2022-11-17T20:01:17.268Z,10.02
2022-11-17T20:03:44.613Z,9.86
2022-11-17T20:06:13.772Z,9.95
2022-11-17T20:08:40.519Z,10.05
2022-11-17T20:11:21.990Z,10.11
2022-11-17T20:13:49.138Z,10.14
2022-11-17T20:16:19.146Z,10.09
2022-11-17T20:18:50.094Z,10.19
2022-11-17T20:21:16.910Z,10.13
2022-11-17T20:23:43.870Z,10.14
2022-11-17T20:26:23.117Z,10.22
2022-11-17T20:28:49.995Z,10.20
2022-11-17T20:31:24.375Z,10.29
2022-11-17T20:33:52.022Z,10.20
2022-11-17T20:36:20.632Z,10.52
2022-11-17T20:38:52.170Z,10.67
2022-11-17T20:41:21.109Z,10.65
2022-11-17T20:43:49.236Z,10.40
2022-11-17T20:46:15.795Z,10.30
2022-11-17T20:48:42.539Z,10.22
2022-11-17T20:51:18.110Z,10.09
2022-11-17T20:53:45.135Z,10.23
2022-11-17T20:56:13.133Z,10.20
2022-11-17T20:58:40.436Z,10.17
2022-11-17T21:01:12.662Z,10.07
2022-11-17T21:03:39.292Z,10.05
2022-11-17T21:08:47.227Z,10.09
2022-11-17T21:11:36.380Z,10.37
2022-11-17T21:14:05.531Z,10.69
2022-11-17T21:16:32.396Z,10.76
2022-11-17T21:18:59.582Z,10.80
2022-11-17T21:21:26.448Z,10.72
2022-11-17T21:23:54.335Z,10.76
2022-11-17T21:26:23.083Z,10.79
2022-11-17T21:28:50.248Z,10.69
2022-11-17T21:31:19.454Z,10.63
2022-11-17T21:33:46.618Z,10.91
2022-11-17T21:36:17.342Z,10.97
2022-11-17T21:38:45.505Z,10.81
2022-11-17T21:41:15.034Z,10.77
2022-11-17T21:43:43.099Z,10.60
2022-11-17T21:46:13.043Z,10.59
2022-11-17T21:48:40.102Z,10.58
2022-11-17T21:51:13.898Z,10.53
2022-11-17T21:53:40.672Z,10.60
2022-11-17T21:56:07.895Z,10.63
2022-11-17T21:58:34.718Z,10.61
2022-11-17T22:01:13.384Z,10.56
2022-11-17T22:03:41.717Z,10.51
2022-11-17T22:06:14.391Z,10.51
2022-11-17T22:08:43.066Z,10.58
2022-11-17T22:11:14.219Z,10.68
2022-11-17T22:13:42.019Z,10.65
2022-11-17T22:16:13.776Z,10.65
2022-11-17T22:18:41.530Z,10.85
2022-11-17T22:21:09.195Z,10.69
2022-11-17T22:23:35.946Z,10.90
2022-11-17T22:26:05.134Z,10.94
2022-11-17T22:28:31.952Z,10.98
2022-11-17T22:30:58.766Z,10.93
2022-11-17T22:33:25.460Z,10.71
2022-11-17T22:35:52.462Z,11.00
2022-11-17T22:38:19.248Z,11.23
2022-11-17T22:40:45.880Z,10.96
2022-11-17T22:43:15.412Z,10.82
2022-11-17T22:45:42.696Z,10.70
2022-11-17T22:48:09.541Z,10.63
2022-11-17T22:50:36.489Z,10.87
2022-11-17T22:53:03.202Z,10.70
2022-11-17T22:55:30.241Z,10.76
2022-11-17T22:57:56.916Z,10.64
2022-11-17T23:00:23.711Z,10.58
2022-11-17T23:02:50.440Z,10.59
2022-11-17T23:05:17.317Z,10.62
2022-11-17T23:07:44.568Z,10.58
2022-11-17T23:10:12.211Z,10.61
2022-11-17T23:12:38.991Z,10.94
2022-11-17T23:15:07.197Z,10.49
2022-11-17T23:17:34.885Z,10.68
2022-11-17T23:20:01.766Z,10.55
2022-11-17T23:22:28.460Z,10.62
2022-11-17T23:24:55.084Z,10.48
2022-11-17T23:27:21.789Z,10.46
2022-11-17T23:29:48.528Z,10.28
2022-11-17T23:32:15.112Z,10.04
2022-11-17T23:34:42.016Z,10.31
2022-11-17T23:37:08.678Z,10.06
2022-11-17T23:39:35.221Z,10.03
2022-11-17T23:42:01.987Z,9.88
2022-11-17T23:44:28.620Z,9.85
2022-11-17T23:46:55.436Z,9.91
2022-11-17T23:49:22.116Z,10.09
2022-11-17T23:51:48.734Z,9.83
2022-11-17T23:54:15.335Z,9.77
2022-11-17T23:56:41.929Z,9.66
2022-11-17T23:59:08.780Z,9.61
